Time;durP1;ratioP1;P1;durP2;ratioP2;P2;SDS_P1;SDS_P2;PMS_P1;PMS_P2;Temp;Humidity;BMP_temperature;BMP_pressure;BME280_temperature;BME280_humidity;BME280_pressure;Samples;Min_cycle;Max_cycle;Signal;HPM_P1;HPM_P2
2022/07/08 03:45:19;;;;;;;2.42;2.22;;;;;;;16.58;73.96;100488.59;5406975;28;20139;-86
2022/07/08 03:48:23;;;;;;;3.37;2.62;;;;;;;16.55;73.98;100487.13;5307594;33;34134;-86
2022/07/08 03:51:25;;;;;;;2.30;2.10;;;;;;;16.61;73.52;100491.69;5307178;33;34593;-86
2022/07/08 03:54:28;;;;;;;1.90;1.80;;;;;;;16.62;73.62;100489.84;5306964;33;34079;-86
2022/07/08 03:57:31;;;;;;;2.65;2.28;;;;;;;16.67;73.53;100492.72;5307614;33;33765;-86
2022/07/08 04:00:34;;;;;;;3.78;2.42;;;;;;;16.70;73.35;100495.88;5307101;33;35060;-83
2022/07/08 04:03:41;;;;;;;2.47;2.28;;;;;;;16.75;73.22;100501.47;5309642;33;34744;-86
2022/07/08 04:06:43;;;;;;;2.25;2.05;;;;;;;16.85;72.88;100500.22;5311593;33;34538;-88
2022/07/08 04:09:46;;;;;;;2.03;1.92;;;;;;;16.89;72.61;100506.91;5306185;33;34289;-88
2022/07/08 04:12:49;;;;;;;2.45;2.25;;;;;;;16.94;72.38;100515.25;5307757;33;34182;-88
2022/07/08 04:15:51;;;;;;;2.05;1.95;;;;;;;17.00;72.36;100506.22;5307994;33;34909;-84
2022/07/08 04:18:54;;;;;;;2.95;2.10;;;;;;;17.06;71.88;100521.69;5306766;33;34923;-84
2022/07/08 04:21:57;;;;;;;2.70;2.50;;;;;;;17.12;71.74;100519.97;5306582;33;34248;-84
2022/07/08 04:24:59;;;;;;;2.08;1.87;;;;;;;17.22;71.38;100517.59;5306488;33;34267;-84
2022/07/08 04:28:02;;;;;;;3.37;2.20;;;;;;;17.24;71.28;100520.94;5305864;33;34878;-84
2022/07/08 04:31:05;;;;;;;2.20;2.05;;;;;;;17.29;71.08;100525.75;5305850;33;34944;-84
2022/07/08 04:34:08;;;;;;;2.30;2.10;;;;;;;17.34;70.76;100521.28;5306545;33;34517;-84
2022/07/08 04:37:11;;;;;;;2.00;1.90;;;;;;;17.41;70.71;100527.53;5306576;33;35456;-84
2022/07/08 04:40:15;;;;;;;2.55;2.35;;;;;;;17.44;70.44;100529.81;5306681;33;34361;-84
2022/07/08 04:43:18;;;;;;;2.62;2.42;;;;;;;17.48;70.49;100530.22;5306894;33;34072;-84
2022/07/08 04:46:24;;;;;;;2.45;2.20;;;;;;;17.57;70.25;100531.63;5320771;33;34540;-84
2022/07/08 04:49:26;;;;;;;2.30;2.10;;;;;;;17.55;70.34;100539.19;5324720;33;34350;-84
2022/07/08 04:52:29;;;;;;;2.05;1.95;;;;;;;17.65;69.97;100538.69;5324813;33;34492;-84
2022/07/08 04:55:32;;;;;;;2.83;2.33;;;;;;;17.76;69.43;100546.16;5324849;33;33888;-84
2022/07/08 04:58:36;;;;;;;3.70;2.50;;;;;;;17.83;69.12;100540.69;5324895;33;34140;-83
2022/07/08 05:01:38;;;;;;;2.55;2.35;;;;;;;17.82;69.14;100545.31;5324661;33;34723;-84
2022/07/08 05:04:41;;;;;;;2.20;2.10;;;;;;;17.81;69.25;100551.81;5324837;33;34565;-84
2022/07/08 05:07:45;;;;;;;3.45;2.30;;;;;;;17.79;69.25;100551.19;5326660;33;34840;-84
2022/07/08 05:10:48;;;;;;;3.00;2.25;;;;;;;17.87;69.03;100552.78;5332741;33;34116;-83
2022/07/08 05:13:51;;;;;;;2.40;2.22;;;;;;;17.93;68.84;100557.38;5334242;33;34180;-83
2022/07/08 05:16:54;;;;;;;2.40;2.05;;;;;;;17.94;68.66;100559.03;5326682;33;34289;-84
2022/07/08 05:19:57;;;;;;;2.35;2.15;;;;;;;18.18;68.36;100562.81;5316019;33;35082;-84
2022/07/08 05:22:59;;;;;;;2.12;2.03;;;;;;;18.32;67.43;100560.81;5306537;33;33984;-84
2022/07/08 05:26:02;;;;;;;3.78;2.40;;;;;;;18.42;67.12;100566.56;5306126;33;34173;-84
2022/07/08 05:29:05;;;;;;;2.65;2.28;;;;;;;18.38;67.17;100567.25;5306197;33;34929;-84
2022/07/08 05:32:08;;;;;;;5.75;2.50;;;;;;;18.40;67.39;100570.56;5306056;33;34928;-84
2022/07/08 05:35:11;;;;;;;3.47;2.20;;;;;;;18.38;67.29;100567.25;5306207;33;33880;-84
2022/07/08 05:38:13;;;;;;;2.10;2.00;;;;;;;18.37;67.42;100566.41;5305686;33;34322;-84
2022/07/08 05:41:16;;;;;;;2.40;2.20;;;;;;;18.43;67.35;100565.53;5306511;33;34275;-84
2022/07/08 05:44:19;;;;;;;3.30;2.62;;;;;;;18.65;66.26;100570.53;5306211;33;34122;-84
2022/07/08 05:47:22;;;;;;;2.70;2.47;;;;;;;18.74;65.90;100575.47;5306457;33;34134;-84
2022/07/08 05:50:25;;;;;;;3.50;2.03;;;;;;;18.91;65.44;100581.19;5315084;33;34314;-83
2022/07/08 05:53:28;;;;;;;2.33;2.10;;;;;;;18.96;65.02;100577.78;5323506;33;34694;-84
2022/07/08 05:56:31;;;;;;;3.80;2.53;;;;;;;18.91;65.40;100574.88;5321053;33;34267;-84
2022/07/08 05:59:36;;;;;;;2.08;1.98;;;;;;;18.86;65.57;100583.75;5321627;33;34220;-84
2022/07/08 06:02:38;;;;;;;2.35;2.15;;;;;;;18.93;65.38;100589.16;5321503;33;34716;-83
2022/07/08 06:05:41;;;;;;;2.30;2.10;;;;;;;19.07;64.85;100601.56;5314024;33;33291;-83
2022/07/08 06:08:44;;;;;;;3.15;2.20;;;;;;;19.14;64.56;100598.75;5304947;33;33612;-84
2022/07/08 06:11:47;;;;;;;2.83;2.22;;;;;;;19.12;64.11;100604.44;5315757;33;32296;-84
2022/07/08 06:14:49;;;;;;;2.78;2.40;;;;;;;19.08;64.23;100597.78;5328325;33;33860;-83
2022/07/08 06:17:53;;;;;;;2.58;2.37;;;;;;;19.02;64.50;100604.16;5332077;33;34892;-84
2022/07/08 06:20:55;;;;;;;2.45;2.35;;;;;;;19.11;64.45;100610.13;5325707;33;34400;-84
2022/07/08 06:24:00;;;;;;;3.53;2.05;;;;;;;19.22;64.22;100609.38;5325051;33;34280;-84
2022/07/08 06:27:03;;;;;;;2.28;2.08;;;;;;;19.45;62.87;100606.75;5317716;33;34841;-83
2022/07/08 06:30:06;;;;;;;3.35;2.17;;;;;;;19.62;62.36;100604.19;5308349;33;35544;-84
2022/07/08 06:33:25;;;;;;;3.35;2.30;;;;;;;19.72;62.08;100605.56;5306497;33;34295;-84
2022/07/08 06:36:27;;;;;;;2.30;2.10;;;;;;;19.92;61.48;100606.09;5306228;33;34365;-84
2022/07/08 06:39:30;;;;;;;2.40;2.20;;;;;;;20.25;60.17;100602.81;5322936;33;33752;-84
2022/07/08 06:42:33;;;;;;;4.28;2.15;;;;;;;20.63;59.11;100596.09;5309976;33;32425;-84
2022/07/08 06:45:38;;;;;;;2.17;2.08;;;;;;;20.84;57.48;100600.09;5315408;33;33938;-84
2022/07/08 06:48:41;;;;;;;1.98;1.87;;;;;;;21.08;56.64;100600.06;5292527;33;34235;-84
2022/07/08 06:51:44;;;;;;;2.28;2.08;;;;;;;21.36;56.27;100588.31;5307733;33;34212;-84
2022/07/08 06:54:47;;;;;;;2.78;2.08;;;;;;;21.29;55.51;100600.25;5307774;33;34161;-84
2022/07/08 06:57:50;;;;;;;2.03;1.92;;;;;;;21.46;55.56;100597.56;5307672;33;34719;-84
2022/07/08 07:00:53;;;;;;;2.15;1.95;;;;;;;21.59;54.78;100595.63;5312195;33;34293;-84
2022/07/08 07:03:55;;;;;;;2.30;2.03;;;;;;;21.66;55.01;100599.03;5298262;33;33734;-84
2022/07/08 07:06:58;;;;;;;2.00;1.90;;;;;;;21.89;54.47;100595.34;5307324;33;33989;-84
2022/07/08 07:10:02;;;;;;;3.17;2.22;;;;;;;22.18;53.79;100599.72;5308090;33;34859;-84
2022/07/08 07:13:05;;;;;;;3.22;1.92;;;;;;;22.34;52.07;100602.69;5307196;33;34343;-84
2022/07/08 07:16:07;;;;;;;2.03;1.92;;;;;;;22.58;49.76;100598.69;5307090;33;34137;-84
2022/07/08 07:19:11;;;;;;;2.37;2.25;;;;;;;22.80;49.36;100597.91;5306905;33;34205;-84
2022/07/08 07:22:15;;;;;;;2.33;2.15;;;;;;;23.00;49.00;100600.13;5307097;33;34217;-84
2022/07/08 07:25:18;;;;;;;6.30;2.03;;;;;;;23.07;47.86;100598.00;5307041;33;34617;-84
2022/07/08 07:28:20;;;;;;;2.60;1.92;;;;;;;23.41;47.60;100606.09;5307227;33;33939;-84
2022/07/08 07:31:23;;;;;;;2.50;2.30;;;;;;;23.68;46.74;100597.88;5303964;33;132433;-84
2022/07/08 07:34:26;;;;;;;2.10;1.90;;;;;;;24.01;46.21;100604.25;5315160;33;32622;-84
2022/07/08 07:37:35;;;;;;;3.87;2.10;;;;;;;24.17;45.21;100608.81;5313064;33;34906;-83
2022/07/08 07:40:38;;;;;;;2.60;2.05;;;;;;;24.07;45.07;100603.19;5306603;33;34371;-84
2022/07/08 07:43:41;;;;;;;3.10;2.20;;;;;;;23.85;45.18;100598.62;5306634;33;34458;-84
2022/07/08 07:46:43;;;;;;;2.80;1.90;;;;;;;24.03;44.60;100602.91;5304980;33;33204;-84
2022/07/08 07:49:46;;;;;;;1.85;1.75;;;;;;;24.19;44.58;100606.63;5310374;33;34251;-84
2022/07/08 07:52:49;;;;;;;2.05;1.95;;;;;;;24.46;43.20;100608.50;5300794;33;33613;-84
2022/07/08 07:55:52;;;;;;;1.83;1.73;;;;;;;24.57;42.48;100605.56;5322582;33;33721;-84
2022/07/08 07:58:55;;;;;;;3.53;2.10;;;;;;;24.66;42.12;100606.72;5322302;33;34339;-84
2022/07/08 08:01:58;;;;;;;3.30;2.20;;;;;;;24.84;41.53;100615.63;5317841;33;34323;-84
2022/07/08 08:05:00;;;;;;;2.67;2.10;;;;;;;24.92;42.10;100601.31;5324679;33;34313;-84
2022/07/08 08:08:03;;;;;;;1.98;1.87;;;;;;;25.25;43.80;100602.91;5316729;33;34882;-84
2022/07/08 08:15:05;;;;;;;2.08;1.95;;;;;;;25.15;41.46;100602.84;5314936;27;34955;-84
2022/07/08 08:18:08;;;;;;;1.92;1.83;;;;;;;25.42;41.85;100605.44;5307971;33;34308;-84
2022/07/08 08:21:11;;;;;;;2.72;1.75;;;;;;;25.41;41.04;100612.03;5307055;33;35130;-84
2022/07/08 08:24:14;;;;;;;2.17;1.83;;;;;;;25.65;39.58;100617.88;5306903;33;34937;-84
2022/07/08 08:27:16;;;;;;;1.85;1.75;;;;;;;25.64;39.44;100610.72;5300027;33;34502;-84
2022/07/08 08:30:20;;;;;;;2.03;1.92;;;;;;;25.65;40.49;100615.12;5311706;33;33460;-84
2022/07/08 08:33:22;;;;;;;2.45;2.12;;;;;;;25.55;39.28;100604.09;5313325;33;34510;-84
2022/07/08 08:36:26;;;;;;;3.33;2.20;;;;;;;25.68;40.62;100603.59;5309032;33;34452;-88
2022/07/08 08:39:29;;;;;;;1.92;1.80;;;;;;;25.82;38.47;100603.03;5317882;33;34328;-88
2022/07/08 08:42:32;;;;;;;1.90;1.80;;;;;;;25.68;39.65;100597.22;5306946;33;33922;-88
2022/07/08 08:45:36;;;;;;;3.05;2.08;;;;;;;25.56;39.27;100602.97;5302044;33;34275;-86
2022/07/08 08:48:39;;;;;;;4.15;2.12;;;;;;;25.45;39.52;100612.34;5307616;33;33777;-85
2022/07/08 08:51:47;;;;;;;2.65;2.03;;;;;;;25.72;40.15;100612.12;5307218;33;32189;-85
2022/07/08 08:54:52;;;;;;;2.30;2.10;;;;;;;25.86;38.99;100607.78;5305279;33;34387;-85
2022/07/08 08:58:00;;;;;;;2.08;1.98;;;;;;;26.07;39.26;100613.31;5307075;33;34580;-85
2022/07/08 09:01:06;;;;;;;5.05;1.87;;;;;;;26.28;38.56;100606.66;5311806;33;34424;-85
2022/07/08 09:04:12;;;;;;;3.33;2.28;;;;;;;26.23;38.26;100610.25;5306388;33;33889;-85
2022/07/08 09:07:15;;;;;;;2.08;1.98;;;;;;;26.29;38.22;100611.06;5295230;33;32558;-85
2022/07/08 09:10:19;;;;;;;2.62;2.00;;;;;;;26.31;38.38;100617.16;5299696;33;33787;-85
2022/07/08 09:13:23;;;;;;;5.70;2.20;;;;;;;26.22;38.73;100605.84;5296822;33;32907;-85
2022/07/08 09:16:26;;;;;;;2.10;1.90;;;;;;;26.21;39.39;100609.72;5320877;33;34181;-84
2022/07/08 09:19:29;;;;;;;2.25;2.00;;;;;;;26.23;39.35;100603.91;5311237;33;33435;-85
2022/07/08 09:22:32;;;;;;;2.45;1.87;;;;;;;26.69;38.85;100609.41;5324610;33;34366;-85
2022/07/08 09:25:35;;;;;;;2.20;2.08;;;;;;;26.60;37.05;100609.16;5326984;33;34176;-85
2022/07/08 09:28:43;;;;;;;2.00;1.80;;;;;;;26.60;36.93;100609.16;5328948;33;34249;-84
2022/07/08 09:31:46;;;;;;;2.05;1.85;;;;;;;26.36;36.67;100605.28;5303727;33;34220;-84
2022/07/08 09:34:49;;;;;;;2.42;1.73;;;;;;;26.67;36.97;100606.09;5305791;33;34107;-85
2022/07/08 09:37:51;;;;;;;2.00;1.90;;;;;;;26.90;36.69;100610.16;5305385;33;33870;-84
2022/07/08 09:40:59;;;;;;;2.08;1.98;;;;;;;26.90;36.45;100604.66;5305538;33;33915;-85
2022/07/08 09:44:02;;;;;;;1.85;1.73;;;;;;;27.26;36.15;100596.22;5305044;33;34418;-85
2022/07/08 09:47:09;;;;;;;2.08;1.73;;;;;;;27.53;35.00;100607.72;5292836;33;33871;-84
2022/07/08 09:50:14;;;;;;;2.55;2.10;;;;;;;27.41;35.00;100607.25;5301695;33;34835;-84
2022/07/08 09:53:23;;;;;;;3.60;2.00;;;;;;;27.49;35.05;100606.63;5291856;33;32960;-84
2022/07/08 09:56:27;;;;;;;1.70;1.60;;;;;;;27.50;34.72;100591.69;5305333;33;35019;-85
2022/07/08 09:59:31;;;;;;;2.62;1.65;;;;;;;27.68;34.49;100604.03;5304330;33;34366;-85
2022/07/08 10:02:36;;;;;;;2.55;2.03;;;;;;;27.58;34.60;100598.53;5290322;33;32881;-85
2022/07/08 10:05:40;;;;;;;1.75;1.65;;;;;;;27.90;33.97;100603.63;5304552;33;34916;-85
2022/07/08 10:08:43;;;;;;;2.20;1.70;;;;;;;28.27;33.82;100608.56;5303265;33;34222;-86
2022/07/08 10:11:47;;;;;;;1.60;1.50;;;;;;;28.45;32.84;100614.53;5289467;33;33863;-84
2022/07/08 10:14:51;;;;;;;3.30;1.50;;;;;;;28.77;32.61;100607.56;5295160;33;34354;-84
2022/07/08 10:17:59;;;;;;;1.77;1.62;;;;;;;28.93;31.33;100601.56;5291422;33;32961;-84
2022/07/08 10:21:05;;;;;;;2.15;1.60;;;;;;;29.56;31.44;100602.44;5302573;33;34624;-88
2022/07/08 10:24:12;;;;;;;4.15;1.75;;;;;;;29.31;30.80;100603.59;5297067;33;32988;-88
2022/07/08 10:27:15;;;;;;;2.92;1.50;;;;;;;28.95;31.77;100620.66;5301459;33;34177;-84
2022/07/08 10:30:20;;;;;;;3.05;1.58;;;;;;;28.80;31.29;100620.84;5302699;33;35105;-85
2022/07/08 10:33:29;;;;;;;2.17;1.70;;;;;;;28.56;31.63;100613.34;5290446;33;33557;-85
2022/07/08 10:36:51;;;;;;;1.83;1.73;;;;;;;28.73;31.16;100623.16;5275703;33;33875;-85
2022/07/08 10:39:53;;;;;;;5.30;1.67;;;;;;;29.03;31.12;100620.03;5292780;33;34943;-86
2022/07/08 10:43:20;;;;;;;2.00;1.80;;;;;;;28.64;31.22;100617.41;5289578;33;35047;-85
2022/07/08 10:46:25;;;;;;;1.92;1.75;;;;;;;28.65;31.56;100622.66;5289253;33;34789;-85
2022/07/08 10:49:40;;;;;;;1.73;1.62;;;;;;;28.71;31.53;100618.69;5289199;33;34878;-84
2022/07/08 10:52:43;;;;;;;1.45;1.35;;;;;;;28.39;31.59;100630.34;5286149;33;34956;-84
2022/07/08 10:55:47;;;;;;;1.73;1.62;;;;;;;28.44;31.23;100621.22;5289645;33;34153;-84
2022/07/08 10:59:18;;;;;;;2.03;1.48;;;;;;;28.19;32.28;100631.34;5284709;33;33784;-84
2022/07/08 11:02:21;;;;;;;1.67;1.58;;;;;;;28.48;31.62;100627.81;5292691;33;34154;-86
2022/07/08 11:05:40;;;;;;;1.60;1.50;;;;;;;28.67;31.75;100633.47;5297310;33;33890;-84
2022/07/08 11:09:00;;;;;;;1.70;1.60;;;;;;;29.02;31.64;100625.88;5275176;33;32815;-84
2022/07/08 11:12:22;;;;;;;2.85;2.45;;;;;;;28.98;31.05;100642.25;5290674;33;33902;-85
2022/07/08 11:15:25;;;;;;;1.70;1.60;;;;;;;28.58;31.63;100640.72;5304979;33;34307;-84
2022/07/08 11:18:28;;;;;;;3.80;1.80;;;;;;;28.79;32.11;100641.38;5307295;33;34286;-84
2022/07/08 11:21:31;;;;;;;1.75;1.65;;;;;;;28.48;32.82;100649.97;5291410;33;34178;-84
2022/07/08 11:24:34;;;;;;;1.50;1.40;;;;;;;28.57;31.71;100639.06;5288385;33;34479;-85
2022/07/08 11:27:37;;;;;;;2.03;1.50;;;;;;;28.57;31.72;100648.22;5298734;33;34964;-85
2022/07/08 11:30:41;;;;;;;3.35;1.60;;;;;;;28.64;32.14;100647.91;5312415;33;35484;-85
2022/07/08 11:33:43;;;;;;;1.60;1.50;;;;;;;28.70;31.69;100649.50;5281733;33;32624;-85
2022/07/08 11:36:57;;;;;;;1.92;1.70;;;;;;;28.85;31.17;100646.56;5285831;33;33787;-84
2022/07/08 11:40:01;;;;;;;1.67;1.58;;;;;;;28.60;31.81;100644.84;5292942;33;34422;-84
2022/07/08 11:43:03;;;;;;;1.80;1.70;;;;;;;28.31;31.80;100642.03;5293557;33;33885;-84
2022/07/08 11:46:43;;;;;;;1.62;1.55;;;;;;;28.35;32.07;100645.09;5294334;33;33928;-84
2022/07/08 11:49:47;;;;;;;3.33;1.70;;;;;;;28.27;31.95;100640.97;5286781;33;34020;-85
2022/07/08 11:52:50;;;;;;;1.73;1.58;;;;;;;28.17;31.80;100647.44;5276280;33;33407;-85
2022/07/08 11:55:53;;;;;;;1.70;1.60;;;;;;;28.48;31.80;100647.19;5295541;33;33645;-84
2022/07/08 11:59:03;;;;;;;2.87;1.60;;;;;;;28.35;31.27;100639.53;5290724;33;34217;-83
2022/07/08 12:02:06;;;;;;;1.90;1.50;;;;;;;28.76;31.09;100639.19;5294441;33;34262;-84
2022/07/08 12:05:10;;;;;;;1.50;1.40;;;;;;;29.09;30.94;100641.03;5300934;33;34445;-84
2022/07/08 12:08:14;;;;;;;2.30;1.45;;;;;;;29.36;29.55;100636.81;5295041;33;34152;-84
2022/07/08 12:11:21;;;;;;;1.05;1.05;;;;;;;29.61;29.50;100633.72;5289134;33;34164;-83
2022/07/08 12:14:25;;;;;;;1.70;1.60;;;;;;;29.53;28.72;100633.56;5295615;33;34970;-84
2022/07/08 12:17:29;;;;;;;1.50;1.40;;;;;;;29.18;28.49;100638.44;5289403;33;34245;-84
2022/07/08 12:20:37;;;;;;;1.62;1.52;;;;;;;29.32;29.33;100635.78;5276137;33;32342;-84
2022/07/08 12:23:44;;;;;;;1.95;1.73;;;;;;;29.74;28.66;100626.59;5299020;33;34213;-89
2022/07/08 12:26:57;;;;;;;2.92;1.40;;;;;;;30.04;27.95;100627.25;5291577;33;33984;-85
2022/07/08 12:30:04;;;;;;;1.85;1.50;;;;;;;29.71;28.75;100618.88;5294403;33;34886;-85
2022/07/08 12:33:08;;;;;;;1.23;1.20;;;;;;;30.00;27.51;100618.72;5290680;33;34630;-85
2022/07/08 12:36:27;;;;;;;1.45;1.30;;;;;;;31.33;25.93;100609.91;5291633;33;34133;-86
2022/07/08 12:39:31;;;;;;;1.58;1.48;;;;;;;32.51;24.24;100621.91;5291468;33;35243;-85
2022/07/08 12:42:34;;;;;;;1.98;1.77;;;;;;;32.54;24.37;100612.06;5275527;33;32793;-85
2022/07/08 12:45:38;;;;;;;1.40;1.30;;;;;;;31.28;25.97;100602.47;5294923;33;33962;-86
2022/07/08 12:48:41;;;;;;;1.58;1.48;;;;;;;30.40;27.51;100610.84;5307753;33;33889;-87
2022/07/08 12:51:43;;;;;;;1.80;1.70;;;;;;;29.87;28.33;100613.94;5308090;33;34567;-86
2022/07/08 12:54:46;;;;;;;2.08;1.52;;;;;;;29.34;29.85;100622.44;5306586;33;34338;-87
2022/07/08 12:57:49;;;;;;;1.92;1.83;;;;;;;28.63;31.71;100619.34;5291125;33;34305;-87
2022/07/08 13:00:52;;;;;;;1.73;1.62;;;;;;;28.23;33.06;100626.91;5292769;33;35473;-87
2022/07/08 13:03:55;;;;;;;4.22;1.87;;;;;;;27.70;34.26;100621.19;5295519;33;34714;-87
2022/07/08 13:08:27;;;;;;;2.30;2.10;;;;;;;28.14;34.45;100625.88;5622808;31;222605;-88
2022/07/08 13:11:31;;;;;;;4.22;2.50;;;;;;;28.14;34.45;100625.88;5600122;31;35200;-89
2022/07/08 13:14:33;;;;;;;2.12;1.98;;;;;;;27.41;35.26;100629.34;5601080;31;35004;-89
2022/07/08 13:17:41;;;;;;;2.53;2.33;;;;;;;27.58;34.67;100624.28;5615752;31;34745;-85
2022/07/08 13:20:44;;;;;;;2.87;2.08;;;;;;;27.52;34.97;100633.69;5614467;31;35185;-86
2022/07/08 13:23:47;;;;;;;3.40;2.30;;;;;;;27.66;34.67;100631.13;5614728;31;33751;-85
2022/07/08 13:26:49;;;;;;;2.80;2.17;;;;;;;27.98;34.19;100636.22;5587934;32;33945;-86
2022/07/08 13:29:53;;;;;;;2.05;1.80;;;;;;;28.00;34.11;100634.00;5583749;31;33380;-86
2022/07/08 13:32:55;;;;;;;2.22;2.03;;;;;;;28.85;33.12;100635.47;5582538;32;34133;-86
2022/07/08 13:35:59;;;;;;;1.85;1.75;;;;;;;28.64;33.01;100629.31;5569884;32;34985;-85
2022/07/08 13:39:02;;;;;;;2.22;1.80;;;;;;;28.51;33.06;100627.22;5568931;32;32403;-85
2022/07/08 13:42:05;;;;;;;2.45;2.00;;;;;;;28.36;33.61;100627.34;5572411;32;33868;-85
2022/07/08 13:45:08;;;;;;;2.10;2.00;;;;;;;28.10;33.78;100630.31;5589683;32;34169;-86
2022/07/08 13:48:12;;;;;;;2.53;2.20;;;;;;;28.02;34.00;100633.69;5587540;32;34532;-86
2022/07/08 13:51:14;;;;;;;2.37;2.05;;;;;;;27.84;34.41;100623.31;5594670;32;35199;-86
2022/07/08 13:54:17;;;;;;;2.28;2.08;;;;;;;27.66;34.38;100617.31;5579998;32;34443;-86
2022/07/08 13:57:20;;;;;;;2.12;1.90;;;;;;;27.75;34.26;100612.81;5593141;32;36455;-86
2022/07/08 14:00:23;;;;;;;2.28;2.08;;;;;;;28.14;33.99;100605.63;5595701;32;33901;-86
2022/07/08 14:03:26;;;;;;;2.70;1.87;;;;;;;27.83;34.36;100605.06;5595151;32;34308;-85
2022/07/08 14:06:29;;;;;;;1.90;1.80;;;;;;;27.86;34.17;100607.25;5576731;32;35135;-86
2022/07/08 14:09:32;;;;;;;2.37;2.03;;;;;;;28.38;33.19;100606.56;5576115;32;34290;-86
2022/07/08 14:12:35;;;;;;;2.00;1.90;;;;;;;28.79;32.26;100608.12;5575572;32;33488;-86
2022/07/08 14:15:38;;;;;;;2.10;1.95;;;;;;;29.74;30.51;100603.59;5572659;32;34084;-86
2022/07/08 14:18:40;;;;;;;1.95;1.85;;;;;;;30.12;30.17;100597.97;5564913;32;32780;-86
2022/07/08 14:21:44;;;;;;;2.10;2.00;;;;;;;30.33;29.74;100602.09;5557029;32;33727;-85
2022/07/08 14:24:46;;;;;;;2.35;1.80;;;;;;;30.32;30.23;100602.41;5554448;32;33707;-85
2022/07/08 14:27:50;;;;;;;2.00;1.70;;;;;;;30.28;29.79;100591.91;5552200;32;34348;-86
2022/07/08 14:30:52;;;;;;;2.20;1.90;;;;;;;30.10;30.18;100589.13;5554705;32;33544;-85
2022/07/08 14:33:56;;;;;;;1.65;1.55;;;;;;;30.10;30.69;100586.34;5555097;32;33874;-85
2022/07/08 14:36:59;;;;;;;2.08;1.98;;;;;;;30.13;30.10;100583.81;5549675;32;32181;-85
2022/07/08 14:40:02;;;;;;;2.92;2.03;;;;;;;29.65;30.57;100588.75;5550903;32;34287;-85
2022/07/08 14:43:05;;;;;;;2.78;1.85;;;;;;;30.04;30.39;100588.38;5548860;32;32482;-86
2022/07/08 14:46:08;;;;;;;1.75;1.65;;;;;;;29.49;30.57;100583.41;5549715;32;33751;-85
2022/07/08 14:49:12;;;;;;;2.47;1.95;;;;;;;28.86;31.47;100591.94;5551764;32;33996;-86
2022/07/08 14:52:16;;;;;;;2.53;1.60;;;;;;;28.24;32.47;100589.78;5549909;32;35359;-85
2022/07/08 14:55:19;;;;;;;2.10;1.90;;;;;;;27.80;33.00;100598.16;5550467;32;33897;-86
2022/07/08 14:58:22;;;;;;;2.78;2.40;;;;;;;27.61;33.40;100589.66;5550159;32;33885;-86
2022/07/08 15:01:24;;;;;;;2.35;1.90;;;;;;;27.31;34.16;100588.75;5549832;32;33825;-86
2022/07/08 15:04:28;;;;;;;2.47;2.10;;;;;;;27.16;34.85;100590.78;5550468;32;34245;-86
2022/07/08 15:07:30;;;;;;;2.20;2.10;;;;;;;27.11;34.79;100599.87;5547647;32;34025;-85
2022/07/08 15:10:33;;;;;;;2.00;1.90;;;;;;;27.25;34.33;100595.41;5560012;32;34182;-85
2022/07/08 15:13:36;;;;;;;3.42;2.20;;;;;;;27.31;34.44;100597.03;5561246;32;33812;-85
2022/07/08 15:16:40;;;;;;;3.58;2.10;;;;;;;27.04;34.36;100605.69;5553142;32;33918;-85
2022/07/08 15:19:42;;;;;;;2.50;2.30;;;;;;;26.87;34.46;100600.50;5560858;32;33796;-85
2022/07/08 15:22:45;;;;;;;2.00;1.90;;;;;;;26.81;34.54;100603.56;5568379;32;33965;-85
2022/07/08 15:25:49;;;;;;;2.20;2.00;;;;;;;26.67;34.72;100601.38;5565767;32;32032;-85
2022/07/08 15:28:52;;;;;;;2.00;1.90;;;;;;;26.52;34.99;100606.13;5547227;32;33155;-85
2022/07/08 15:31:54;;;;;;;3.00;2.40;;;;;;;26.38;35.53;100603.88;5549936;32;33934;-88
2022/07/08 15:34:58;;;;;;;2.72;2.05;;;;;;;26.36;35.86;100605.28;5553936;32;34514;-88
2022/07/08 15:38:01;;;;;;;2.08;1.98;;;;;;;26.35;35.92;100611.91;5559060;32;34136;-89
2022/07/08 15:41:05;;;;;;;2.80;2.47;;;;;;;26.39;35.90;100602.81;5561107;32;32072;-87
2022/07/08 15:44:07;;;;;;;2.65;2.45;;;;;;;26.30;36.75;100611.94;5548448;32;33792;-85
2022/07/08 15:47:34;;;;;;;3.08;2.30;;;;;;;26.41;37.39;100614.41;5548551;32;33293;-85
2022/07/08 15:50:37;;;;;;;3.20;2.28;;;;;;;26.13;38.80;100626.00;5548469;32;33473;-85
2022/07/08 15:53:39;;;;;;;3.37;2.47;;;;;;;25.85;39.94;100630.09;5549236;32;34572;-85
2022/07/08 15:56:44;;;;;;;4.00;2.40;;;;;;;25.67;40.98;100626.72;5548609;32;34601;-85
2022/07/08 15:59:47;;;;;;;2.72;2.53;;;;;;;25.58;41.65;100627.53;5548129;32;34485;-85
2022/07/08 16:02:50;;;;;;;2.47;2.30;;;;;;;25.49;41.67;100635.50;5553159;32;33656;-85
2022/07/08 16:05:53;;;;;;;2.47;2.28;;;;;;;25.35;41.54;100632.41;5563142;32;33936;-85
